Home > Products > Valid Products > TAF

000
FTUS43 KILX 212300
TAFSPI
TAF
KSPI 212327Z 2200/2224 34011KT P6SM SCT050
     FM220400 34005KT P6SM SKC
     FM221500 VRB03KT P6SM SKC=



000
FTUS43 KILX 212300
TAFPIA
TAF
KPIA 212327Z 2200/2224 33008KT P6SM SCT045
     FM220400 36005KT P6SM SKC
     FM222300 VRB03KT P6SM SKC=



000
FTUS43 KILX 212300
TAFCMI
TAF
KCMI 212327Z 2200/2224 33010KT P6SM SCT050
     FM220400 36006KT P6SM SCT040
     FM221200 36006KT P6SM SKC
     FM222300 VRB03KT P6SM SKC=



000
FTUS43 KILX 212300
TAFBMI
TAF
KBMI 212327Z 2200/2224 32012KT P6SM SCT050
     FM220400 34007KT P6SM SKC
     FM222300 VRB03KT P6SM SKC=



000
FTUS43 KILX 212300
TAFDEC
TAF
KDEC 212327Z 2200/2224 33010G16KT P6SM SCT050
     FM220100 34008KT P6SM SCT050
     FM220500 36005KT P6SM SKC
     FM222300 VRB03KT P6SM SKC=



000
FTUS43 KILX 212200 AAA
TAFBMI
TAF AMD
KBMI 212224Z 2122/2218 32014KT P6SM SCT050
     FM220000 34010KT P6SM SCT045
     FM220300 34008KT P6SM SCT035
     FM220600 34006KT P6SM SKC
     FM221500 36008KT P6SM FEW040=



000
FTUS43 KILX 212100 AAA
TAFDEC
TAF AMD
KDEC 212117Z 2121/2218 32014G24KT P6SM BKN050
     FM212300 34008KT P6SM SCT045
      TEMPO 2123/2201 BKN045
     FM220100 35006KT P6SM SCT040
     FM220500 35005KT P6SM SKC
     FM221500 36007KT P6SM FEW045=



000
FTUS43 KILX 211700 RRA
TAFCMI
TAF
KCMI 211741Z 2118/2218 30016G27KT P6SM SCT045
      TEMPO 2118/2119 BKN045
     FM211900 31015G25KT P6SM BKN045
     FM220000 34008KT P6SM BKN040
     FM220400 35006KT P6SM SCT040
     FM220700 34004KT P6SM SKC
     FM221500 36006KT P6SM FEW040=



000
FTUS43 KILX 211700 RRA
TAFDEC
TAF
KDEC 211741Z 2118/2218 31015G24KT P6SM SCT050
      TEMPO 2119/2123 BKN045
     FM212300 34008KT P6SM SCT045
      TEMPO 2123/2201 BKN045
     FM220100 35006KT P6SM SCT040
     FM220500 35005KT P6SM SKC
     FM221500 36007KT P6SM FEW045=



000
FTUS43 KILX 211700 RRA
TAFPIA
TAF
KPIA 211741Z 2118/2218 33013G23KT P6SM BKN040
     FM212300 34006KT P6SM BKN040
      TEMPO 2123/2201 SCT040
     FM220100 36004KT P6SM SCT040
     FM220500 36003KT P6SM SKC
     FM221500 36005KT P6SM FEW040=



000
FTUS43 KILX 211700 RRA
TAFSPI
TAF
KSPI 211741Z 2118/2218 31014G24KT P6SM SCT050
      TEMPO 2120/2123 BKN045
     FM212300 34006KT P6SM SCT040
     FM220400 34004KT P6SM SKC
     FM221500 36006KT P6SM FEW045=



000
FTUS43 KILX 211700 RRA
TAFBMI
TAF
KBMI 211741Z 2118/2218 31017G27KT P6SM BKN045
     FM220000 34010KT P6SM BKN040
     FM220300 34008KT P6SM SCT035
     FM220600 34006KT P6SM SKC
     FM221500 36008KT P6SM FEW040=



000
FTUS43 KILX 211700 AAA
TAFPIA
TAF AMD
KPIA 211716Z 2117/2212 33013G23KT P6SM BKN040
     FM212300 36005KT P6SM SCT040
     FM220300 36004KT P6SM SKC=



000
FTUS43 KILX 211700 AAA
TAFBMI
TAF AMD
KBMI 211711Z 2117/2212 30017G25KT P6SM BKN045
     FM212300 34008KT P6SM SCT035
     FM220400 34006KT P6SM SKC=



000
FTUS43 KILX 211100
TAFCMI
TAF
KCMI 211120Z 2112/2212 29009KT P6SM SKC
     FM211400 31015G24KT P6SM SCT040
      TEMPO 2119/2123 BKN040
     FM212300 35006KT P6SM SCT040
     FM220500 35005KT P6SM SKC=



000
FTUS43 KILX 211100
TAFSPI
TAF
KSPI 211120Z 2112/2212 28007KT P6SM SKC
     FM211400 31015G23KT P6SM SCT040
      TEMPO 2119/2123 BKN040
     FM212300 34006KT P6SM SCT040
     FM220500 34005KT P6SM SKC=



000
FTUS43 KILX 211100
TAFPIA
TAF
KPIA 211120Z 2112/2212 28007KT P6SM SKC
     FM211400 32012G20KT P6SM SCT040
      TEMPO 2118/2122 BKN040
     FM212300 36005KT P6SM SCT040
     FM220300 36004KT P6SM SKC=



000
FTUS43 KILX 211100
TAFBMI
TAF
KBMI 211120Z 2112/2212 28009KT P6SM SKC
     FM211400 31014G22KT P6SM SCT035
      TEMPO 2118/2122 BKN035
     FM212300 34008KT P6SM SCT035
     FM220400 34006KT P6SM SKC=



000
FTUS43 KILX 211100
TAFDEC
TAF
KDEC 211120Z 2112/2212 29009KT P6SM SKC
     FM211400 31015G24KT P6SM SCT040
      TEMPO 2119/2123 BKN040
     FM212300 35006KT P6SM SCT040
     FM220500 35005KT P6SM SKC=



000
FTUS43 KILX 211000 AAB
TAFSPI
TAF AMD
KSPI 211004Z 2110/2206 31009KT P6SM SKC
     FM211500 32014G22KT P6SM BKN040
     FM212300 34006KT P6SM SCT040=



000
FTUS43 KILX 211000 AAB
TAFPIA
TAF AMD
KPIA 211003Z 2110/2206 31006KT P6SM SKC
     FM211600 32013G21KT P6SM BKN040
     FM212300 36005KT P6SM SCT040=



000
FTUS43 KILX 211000 AAB
TAFBMI
TAF AMD
KBMI 211003Z 2110/2206 31012KT P6SM SKC
     FM211600 31016G24KT P6SM BKN035
     FM212300 35008KT P6SM SCT035=



000
FTUS43 KILX 210900 AAA
TAFDEC
TAF AMD
KDEC 210901Z 2109/2206 30012G20KT P6SM SKC
     FM211600 32015G24KT P6SM BKN040
     FM212300 36006KT P6SM SCT040=



000
FTUS43 KILX 210900 AAB
TAFCMI
TAF AMD
KCMI 210901Z 2109/2206 26008KT 5SM BR SKC
     FM211000 30012G20KT P6SM SKC
     FM211700 32015G24KT P6SM BKN040
     FM212300 36006KT P6SM SCT040=



000
FTUS43 KILX 210900 AAA
TAFBMI
TAF AMD
KBMI 210901Z 2109/2206 32012G22KT P6SM SKC
     FM211600 31016G24KT P6SM BKN035
     FM212300 35008KT P6SM SCT035=



000
FTUS43 KILX 210900 AAA
TAFSPI
TAF AMD
KSPI 210901Z 2109/2206 32012G21KT P6SM SKC
     FM211500 32014G22KT P6SM BKN040
     FM212300 34006KT P6SM SCT040=



000
FTUS43 KILX 210900 AAA
TAFPIA
TAF AMD
KPIA 210901Z 2109/2206 32010G20KT P6SM SKC
     FM211600 32013G21KT P6SM BKN040
     FM212300 36005KT P6SM SCT040=



000
FTUS43 KILX 210700 AAA
TAFCMI
TAF AMD
KCMI 210715Z 2107/2206 26006KT 5SM BR SKC
     FM211200 29012KT P6SM SCT060
     FM211700 32015G24KT P6SM BKN040
     FM212300 36006KT P6SM SCT040=



000
FTUS43 KILX 210500
TAFCMI
TAF
KCMI 210521Z 2106/2206 26006KT 6SM BR SKC
     FM211200 29012KT P6SM SCT060
     FM211700 32015G24KT P6SM BKN040
     FM212300 36006KT P6SM SCT040=



000
FTUS43 KILX 210500
TAFPIA
TAF
KPIA 210521Z 2106/2206 26006KT 6SM BR SKC
     FM210900 30010KT P6SM SCT060
     FM211600 32013G21KT P6SM BKN040
     FM212300 36005KT P6SM SCT040=



000
FTUS43 KILX 210500
TAFBMI
TAF
KBMI 210521Z 2106/2206 26008KT 6SM BR SKC
     FM211100 30013KT P6SM SCT060
     FM211600 31016G24KT P6SM BKN035
     FM212300 35008KT P6SM SCT035=



000
FTUS43 KILX 210500
TAFDEC
TAF
KDEC 210521Z 2106/2206 25007KT 6SM BR SKC
     FM211200 30011KT P6SM SCT060
     FM211600 32015G24KT P6SM BKN040
     FM212300 36006KT P6SM SCT040=



000
FTUS43 KILX 210500
TAFSPI
TAF
KSPI 210521Z 2106/2206 26006KT 6SM BR SKC
     FM211100 31010KT P6SM SCT060
     FM211500 32014G22KT P6SM BKN040
     FM212300 34006KT P6SM SCT040=



000
FTUS43 KILX 210200 AAB
TAFDEC
TAF AMD
KDEC 210300Z 2103/2124 21010KT P6SM SCT045
     FM210330 21010KT P6SM VCTS SCT030CB BKN045
      TEMPO 2104/2105 4SM TSRA BR BKN030CB
     FM210600 26007KT 5SM BR SCT045
     FM211200 29011KT P6SM SCT035
     FM211600 32014G22KT P6SM BKN040=



000
FTUS43 KILX 210200 AAB
TAFCMI
TAF AMD
KCMI 210254Z 2103/2124 20007KT 5SM BR VCTS SCT050CB
      TEMPO 2103/2105 4SM TSRA BR BKN030CB
     FM210600 26007KT 6SM BR SCT045
     FM211200 29012KT P6SM SCT035
     FM211700 31015G23KT P6SM BKN030=



000
FTUS43 KILX 210200 AAA
TAFSPI
TAF AMD
KSPI 210247Z 2103/2124 23007KT P6SM VCTS SCT040CB
      TEMPO 2103/2104 4SM TSRA BKN030CB
     FM210500 26006KT 6SM BR SCT045
     FM211200 31010KT P6SM SCT035
     FM211500 32014G22KT P6SM SCT040=



000
FTUS43 KILX 210000 AAA
TAFBMI
TAF AMD
KBMI 210049Z 2101/2124 24008KT P6SM VCTS SCT030CB
      TEMPO 2101/2102 4SM TSRA BKN030CB
     FM210300 24008KT P6SM SCT040
     FM210600 27008KT 6SM BR SCT045
     FM211200 30013KT P6SM SCT030
     FM211600 31016G24KT P6SM BKN030=



000
FTUS43 KILX 210000 AAA
TAFDEC
TAF AMD
KDEC 210046Z 2101/2124 26006KT P6SM SCT045
     FM210200 24009KT P6SM BKN045
     FM210700 26007KT 6SM BR SCT045
     FM211200 29011KT P6SM SCT035
     FM211600 32014G22KT P6SM BKN040=



000
FTUS43 KILX 210000 AAA
TAFCMI
TAF AMD
KCMI 210014Z 2100/2124 VRB05KT P6SM VCSH SCT050
      TEMPO 2100/2101 4SM SHRA BR BKN030
     FM210200 23007KT P6SM SCT045
     FM210700 26007KT 6SM BR SCT045
     FM211200 29012KT P6SM SCT035
     FM211700 31015G23KT P6SM BKN030=



000
FTUS43 KILX 202300
TAFCMI
TAF
KCMI 202320Z 2100/2124 VRB05KT P6SM VCSH SCT050
     FM210200 23007KT P6SM SCT045
     FM210700 26007KT 6SM BR SCT045
     FM211200 29012KT P6SM SCT035
     FM211700 31015G23KT P6SM BKN030=



000
FTUS43 KILX 202300
TAFSPI
TAF
KSPI 202320Z 2100/2124 23007KT P6SM SCT045
     FM210500 26006KT 6SM BR SCT045
     FM211200 31010KT P6SM SCT035
     FM211500 32014G22KT P6SM SCT040=



000
FTUS43 KILX 202300
TAFBMI
TAF
KBMI 202320Z 2100/2124 24008KT P6SM VCSH SCT050
     FM210600 27008KT 6SM BR SCT045
     FM211200 30013KT P6SM SCT030
     FM211600 31016G24KT P6SM BKN030=



000
FTUS43 KILX 202300
TAFPIA
TAF
KPIA 202320Z 2100/2124 24008KT P6SM VCSH SCT050
     FM210400 26006KT 6SM BR SCT045
     FM211200 30010KT P6SM SCT035
     FM211600 31013G21KT P6SM BKN035=



000
FTUS43 KILX 202300
TAFDEC
TAF
KDEC 202320Z 2100/2124 27009KT P6SM -RA VCTS SCT040CB OVC050
      TEMPO 2100/2101 4SM TSRA BKN030CB
     FM210200 24009KT P6SM BKN045
     FM210700 26007KT 6SM BR SCT045
     FM211200 29011KT P6SM SCT035
     FM211600 32014G22KT P6SM BKN040=



000
FTUS43 KILX 202200 AAD
TAFCMI
TAF AMD
KCMI 202239Z 2023/2118 VRB06KT P6SM VCTS SCT025CB BKN050
     FM210000 23008KT P6SM SCT035 BKN150
     FM210700 26007KT 6SM BR SCT045
     FM211200 29012KT P6SM SCT035
     FM211700 30015G23KT P6SM BKN035=



000
FTUS43 KILX 202200 AAD
TAFSPI
TAF AMD
KSPI 202237Z 2023/2118 24012KT 3SM -SHRA VCTS SCT025CB BKN050
     FM210000 23008KT P6SM SCT020 BKN080
     FM210500 26006KT 6SM BR SCT045
     FM211200 31010KT P6SM SCT035
     FM211500 32014G22KT P6SM SCT040=



000
FTUS43 KILX 202200 AAD
TAFDEC
TAF AMD
KDEC 202220Z 2022/2118 25012KT P6SM -RA VCTS SCT040CB OVC050
      TEMPO 2022/2024 3SM TSRA BKN015CB
     FM210200 24009KT P6SM BKN045
     FM210700 26007KT 6SM BR SCT045
     FM211200 29011KT P6SM SCT035
     FM211600 31014G22KT P6SM BKN040=



000
FTUS43 KILX 202100 CCB
TAFCMI
TAF COR
KCMI 202134Z 2022/2118 29014G28KT 1 1/2SM +TSRA BR SCT015CB OVC035
     FM202200 VRB06G16KT P6SM VCTS SCT025CB BKN050
      TEMPO 2022/2023 4SM TSRA BKN025CB
     FM210200 23009KT P6SM VCSH BKN045
     FM210700 26007KT 6SM BR SCT045
     FM211200 29012KT P6SM SCT035
     FM211700 30015G23KT P6SM BKN035=



000
FTUS43 KILX 202100 AAC
TAFCMI
TAF AMD
KCMI 202131Z 2022/2118 29014G28KT P6SM VCTS SCT025CB OVC050
      TEMPO 2022/2024 1SM +TSRA BKN015CB
     FM210200 23009KT P6SM VCSH BKN045
     FM210700 26007KT 6SM BR SCT045
     FM211200 29012KT P6SM SCT035
     FM211700 30015G23KT P6SM BKN035=



000
FTUS43 KILX 202100 AAC
TAFDEC
TAF AMD
KDEC 202107Z 2021/2118 24014G25KT P6SM VCTS SCT040CB OVC050
      TEMPO 2021/2024 1SM +TSRA BKN015CB
     FM210200 23009KT P6SM VCSH BKN045
     FM210700 26007KT 6SM BR SCT045
     FM211200 29011KT P6SM SCT035
     FM211600 31014G22KT P6SM BKN040=



000
FTUS43 KILX 202100 CCA
TAFCMI
TAF COR
KCMI 202105Z 2021/2118 24014G22KT P6SM VCTS SCT025CB OVC050
      TEMPO 2021/2024 1 1/2SM +TSRA BKN015CB
     FM210200 23009KT P6SM VCSH BKN045
     FM210700 26007KT 6SM BR SCT045
     FM211200 29012KT P6SM SCT035
     FM211700 30015G23KT P6SM BKN035=



000
FTUS43 KILX 202100 AAB
TAFCMI
TAF AMD
KCMI 202103Z 2021/2118 24014G22KT P6SM VCTS SCT040CB OVC050
      TEMPO 2021/2024 1 1/2SM +TSRA BKN015CB
     FM210200 23009KT P6SM VCSH BKN045
     FM210700 26007KT 6SM BR SCT045
     FM211200 29012KT P6SM SCT035
     FM211700 30015G23KT P6SM BKN035=



000
FTUS43 KILX 202100 AAC
TAFSPI
TAF AMD
KSPI 202102Z 2021/2118 26012KT P6SM VCTS SCT030CB BKN250
      TEMPO 2022/2023 4SM TSRA BKN035CB
     FM210100 23008KT P6SM VCSH BKN050
     FM210500 26006KT 6SM BR SCT045
     FM211200 31010KT P6SM SCT035
     FM211500 32014G22KT P6SM SCT040=



000
FTUS43 KILX 202100 AAC
TAFPIA
TAF AMD
KPIA 202101Z 2021/2118 24014KT P6SM SCT035 BKN150
     FM202300 24009KT P6SM VCSH BKN045
     FM210400 26006KT 6SM BR SCT045
     FM211200 30010KT P6SM SCT035
     FM211600 31013G21KT P6SM BKN035=



000
FTUS43 KILX 202100 AAD
TAFBMI
TAF AMD
KBMI 202101Z 2021/2118 25013KT P6SM VCTS SCT035CB OVC045
     FM210000 23010KT P6SM VCSH BKN045
     FM210600 27008KT 6SM BR SCT045
     FM211200 30013KT P6SM SCT030
     FM211600 31016G24KT P6SM BKN030=



000
FTUS43 KILX 202000 AAC
TAFBMI
TAF AMD
KBMI 202020Z 2020/2118 27016G24KT P6SM VCTS SCT035CB OVC050
      TEMPO 2020/2022 1SM +TSRA BKN020CB
     FM210000 23010KT P6SM VCSH BKN045
     FM210600 27008KT 6SM BR SCT045
     FM211200 30013KT P6SM SCT030
     FM211600 31016G24KT P6SM BKN030=



000
FTUS43 KILX 202000 AAB
TAFBMI
TAF AMD
KBMI 202006Z 2020/2118 25016G24KT P6SM VCTS SCT035CB OVC050
      TEMPO 2020/2023 2SM +TSRA BKN020CB
     FM210000 23010KT P6SM VCSH BKN045
     FM210600 27008KT 6SM BR SCT045
     FM211200 30013KT P6SM SCT030
     FM211600 31016G24KT P6SM BKN030=



000
FTUS43 KILX 201900 AAB
TAFSPI
TAF AMD
KSPI 201959Z 2020/2118 25012G22KT P6SM VCTS SCT025CB BKN250
      TEMPO 2020/2023 4SM TSRA BKN035CB
     FM210100 23008KT P6SM VCSH BKN050
     FM210500 26006KT 6SM BR SCT045
     FM211200 31010KT P6SM SCT035
     FM211500 32014G22KT P6SM SCT040=



000
FTUS43 KILX 201800 AAB
TAFPIA
TAF AMD
KPIA 201802Z 2018/2118 24014G20KT P6SM SCT025 BKN250
     FM201900 24014G20KT P6SM VCTS SCT035CB BKN150
      TEMPO 2019/2022 4SM TSRA BKN025CB
     FM202300 24009KT P6SM VCSH BKN045
     FM210400 26006KT 6SM BR SCT045
     FM211200 30010KT P6SM SCT035
     FM211600 31013G21KT P6SM BKN035=



000
FTUS43 KILX 201700 AAA
TAFSPI
TAF AMD
KSPI 201750Z 2018/2118 22012G22KT P6SM SCT025 BKN250
     FM202100 24014G22KT P6SM VCTS SCT040CB OVC050
      TEMPO 2021/2024 4SM TSRA BKN035CB
     FM210100 23008KT P6SM VCSH BKN050
     FM210500 26006KT 6SM BR SCT045
     FM211200 31010KT P6SM SCT035
     FM211500 32014G22KT P6SM SCT040=



000
FTUS43 KILX 201700 AAA
TAFBMI
TAF AMD
KBMI 201750Z 2018/2118 22016G24KT P6SM SCT025 BKN250
     FM202000 24016G24KT P6SM VCTS SCT035CB OVC050
      TEMPO 2020/2023 4SM TSRA BKN025CB
     FM210000 23010KT P6SM VCSH BKN045
     FM210600 27008KT 6SM BR SCT045
     FM211200 30013KT P6SM SCT030
     FM211600 31016G24KT P6SM BKN030=



000
FTUS43 KILX 201700 AAB
TAFDEC
TAF AMD
KDEC 201750Z 2018/2118 22014G22KT P6SM SCT025 BKN250
     FM202100 24014G22KT P6SM VCTS SCT040CB OVC050
      TEMPO 2021/2024 4SM TSRA BKN035CB
     FM210200 23009KT P6SM VCSH BKN045
     FM210700 26007KT 6SM BR SCT045
     FM211200 29011KT P6SM SCT035
     FM211600 31014G22KT P6SM BKN040=



000
FTUS43 KILX 201700 AAA
TAFCMI
TAF AMD
KCMI 201749Z 2018/2118 22014G22KT P6SM SCT025 BKN250
     FM202100 24014G22KT P6SM VCTS SCT040CB OVC050
      TEMPO 2021/2024 4SM TSRA BKN035CB
     FM210200 23009KT P6SM VCSH BKN045
     FM210700 26007KT 6SM BR SCT045
     FM211200 29012KT P6SM SCT035
     FM211700 30015G23KT P6SM BKN035=



000
FTUS43 KILX 201700 AAA
TAFDEC
TAF AMD
KDEC 201749Z 2018/2118 22014G22KT P6SM SCT025 BKN250
     FM202100 24014G22KT P6SM VCTS SCT040CB OVC050
      TEMPO 2021/2024 4SM TSRA BKN035CB
     FM210100 23009KT P6SM VCSH BKN045
     FM210600 26007KT 6SM BR SCT045
     FM211200 29011KT P6SM SCT035
     FM211600 31014G22KT P6SM BKN040=



000
FTUS43 KILX 201700 AAA
TAFPIA
TAF AMD
KPIA 201749Z 2018/2118 22014G20KT P6SM SCT025 BKN250
     FM201900 24014G20KT P6SM VCTS SCT035CB BKN150
      TEMPO 2019/2022 4SM TSRA BKN025CB
     FM202300 23009KT P6SM VCSH BKN045
     FM210400 25006KT 6SM BR SCT045
     FM211200 30010KT P6SM SCT035
     FM211600 31013G21KT P6SM BKN035=



000
FTUS43 KILX 201700 RRA
TAFSPI
TAF
KSPI 201744Z 2018/2118 22012G22KT P6SM SCT025 BKN250
     FM202100 24014G22KT P6SM VCTS SCT040CB OVC050
      TEMPO 2021/2024 4SM TSRA BKN035CB
     FM210100 23008KT P6SM BKN050
     FM210500 26006KT 6SM BR SCT045
     FM211200 31010KT P6SM SCT035
     FM211500 32014G22KT P6SM SCT040=



000
FTUS43 KILX 201700 RRA
TAFDEC
TAF
KDEC 201744Z 2018/2118 22014G22KT P6SM SCT025 BKN250
     FM202100 24014G22KT P6SM VCTS SCT040CB OVC050
      TEMPO 2021/2024 4SM TSRA BKN035CB
     FM210100 23009KT P6SM BKN045
     FM210600 26007KT 6SM BR SCT045
     FM211200 29011KT P6SM SCT035
     FM211600 31014G22KT P6SM BKN040=



000
FTUS43 KILX 201700 RRA
TAFCMI
TAF
KCMI 201744Z 2018/2118 22014G22KT P6SM SCT025 BKN250
     FM202100 24014G22KT P6SM VCTS SCT040CB OVC050
      TEMPO 2021/2024 4SM TSRA BKN035CB
     FM210100 23009KT P6SM BKN045
     FM210600 26007KT 6SM BR SCT045
     FM211200 29012KT P6SM SCT035
     FM211700 30015G23KT P6SM BKN035=



000
FTUS43 KILX 201700 RRA
TAFPIA
TAF
KPIA 201744Z 2018/2118 22014G20KT P6SM SCT025 BKN250
     FM201900 24014G20KT P6SM VCTS SCT035CB BKN150
      TEMPO 2019/2022 4SM TSRA BKN025CB
     FM202300 23009KT P6SM BKN045
     FM210400 25006KT 6SM BR SCT045
     FM211200 30010KT P6SM SCT035
     FM211600 31013G21KT P6SM BKN035=



000
FTUS43 KILX 201700 RRA
TAFBMI
TAF
KBMI 201744Z 2018/2118 22016G24KT P6SM SCT025 BKN250
     FM202000 24016G24KT P6SM VCTS SCT035CB OVC050
      TEMPO 2020/2023 4SM TSRA BKN025CB
     FM210000 23010KT P6SM BKN045
     FM210600 27008KT 6SM BR SCT045
     FM211200 30013KT P6SM SCT030
     FM211600 31016G24KT P6SM BKN030=



000
FTUS43 KILX 201700 AAB
TAFPIA
TAF AMD
KPIA 201707Z 2017/2112 22014G20KT P6SM SCT025 BKN250
     FM201900 24014G20KT P6SM VCTS SCT035CB BKN150
      TEMPO 2019/2022 4SM TSRA BKN035CB
     FM202200 23007KT P6SM SCT035
     FM210500 27005KT 5SM BR SKC=



000
FTUS43 KILX 201300 AAA
TAFPIA
TAF AMD
KPIA 201352Z 2014/2112 20008KT 6SM HZ VCSH SCT035 BKN070
      TEMPO 2014/2015 5SM HZ
     FM201500 22012KT P6SM SCT060 BKN250
     FM201700 24014G22KT P6SM VCTS SCT040CB OVC050
      TEMPO 2018/2021 4SM TSRA BKN035CB
     FM202200 23007KT P6SM SCT035
     FM210500 27005KT 5SM BR SKC=



000
FTUS43 KILX 201100
TAFDEC
TAF
KDEC 201130Z 2012/2112 20006KT P6SM BKN250
     FM201700 22014KT P6SM SCT060 BKN250
     FM201900 24014G22KT P6SM VCTS SCT040CB OVC050
      TEMPO 2020/2023 4SM TSRA BKN035CB
     FM210000 23007KT P6SM SCT035
     FM210500 26005KT 5SM BR SKC=



000
FTUS43 KILX 201100
TAFBMI
TAF
KBMI 201130Z 2012/2112 20007KT P6SM BKN250
     FM201500 22015KT P6SM SCT060 BKN250
     FM201800 24015G24KT P6SM VCTS SCT035CB OVC050
      TEMPO 2019/2022 4SM TSRA BKN030CB
     FM202300 23008KT P6SM SCT030
     FM210600 27006KT 4SM BR SKC=



000
FTUS43 KILX 201100
TAFCMI
TAF
KCMI 201130Z 2012/2112 20007KT P6SM BKN250
     FM201700 22015KT P6SM SCT060 BKN250
     FM201900 24014G22KT P6SM VCTS SCT040CB OVC050
      TEMPO 2020/2023 4SM TSRA BKN035CB
     FM210000 23007KT P6SM SCT035
     FM210500 26005KT 5SM BR SKC=



000
FTUS43 KILX 201100
TAFPIA
TAF
KPIA 201130Z 2012/2112 20006KT P6SM BKN250
     FM201500 22015KT P6SM SCT060 BKN250
     FM201700 24014G22KT P6SM VCTS SCT040CB OVC050
      TEMPO 2018/2021 4SM TSRA BKN035CB
     FM202200 23007KT P6SM SCT035
     FM210500 27005KT 5SM BR SKC=



000
FTUS43 KILX 201100
TAFSPI
TAF
KSPI 201130Z 2012/2112 20007KT P6SM BKN250
     FM201600 22012KT P6SM SCT060 BKN250
     FM201900 24014G22KT P6SM VCTS SCT040CB OVC050
      TEMPO 2020/2023 4SM TSRA BKN035CB
     FM210000 23007KT P6SM SCT035
     FM210500 26005KT 5SM BR SKC=



000
FTUS43 KILX 200500
TAFCMI
TAF
KCMI 200523Z 2006/2106 16007KT P6SM SCT250
     FM201400 21012KT P6SM SCT120 BKN250
     FM201700 23015G22KT P6SM SCT040 BKN250
     FM202000 23014G22KT P6SM VCTS SCT035CB BKN050
      TEMPO 2022/2101 4SM TSRA OVC035CB
     FM210200 23008KT P6SM SCT040=



000
FTUS43 KILX 200500
TAFBMI
TAF
KBMI 200523Z 2006/2106 18010KT P6SM SCT250
     FM201300 22013KT P6SM SCT120 BKN250
     FM201500 22015G24KT P6SM SCT040 BKN250
     FM201800 23015G24KT P6SM VCTS SCT030CB BKN050
      TEMPO 2020/2023 4SM TSRA OVC030CB
     FM210000 23010KT P6SM SCT040=



000
FTUS43 KILX 200500
TAFDEC
TAF
KDEC 200523Z 2006/2106 18006KT P6SM SCT250
     FM201400 22012KT P6SM SCT120 BKN250
     FM201700 23014G22KT P6SM SCT040 BKN250
     FM202000 23014G22KT P6SM VCTS SCT035CB BKN050
      TEMPO 2022/2101 4SM TSRA OVC035CB
     FM210200 23008KT P6SM SCT040=



000
FTUS43 KILX 200500
TAFSPI
TAF
KSPI 200523Z 2006/2106 17008KT P6SM SCT250
     FM201300 22012KT P6SM SCT120 BKN250
     FM201600 23012G22KT P6SM SCT040 BKN250
     FM201900 23014G22KT P6SM VCTS SCT035CB BKN050
      TEMPO 2021/2024 4SM TSRA OVC035CB
     FM210100 23008KT P6SM SCT040=



000
FTUS43 KILX 200500
TAFPIA
TAF
KPIA 200523Z 2006/2106 18007KT P6SM SCT250
     FM201200 22011KT P6SM SCT120 BKN250
     FM201500 22015G22KT P6SM SCT040 BKN250
     FM201600 23014G22KT P6SM VCTS SCT035CB BKN050
      TEMPO 2018/2021 4SM TSRA OVC035CB
     FM202200 23008KT P6SM SCT040=



000
FTUS43 KILX 192300
TAFSPI
TAF
KSPI 192327Z 2000/2024 18008KT P6SM SCT250
     FM201300 22012KT P6SM SCT120 BKN250
     FM201600 23014G20KT P6SM SCT120 BKN250
     FM201900 23014G20KT P6SM VCTS SCT030CB BKN050=



000
FTUS43 KILX 192300
TAFBMI
TAF
KBMI 192327Z 2000/2024 18010KT P6SM SCT250
     FM201300 22013KT P6SM SCT120 BKN250
     FM201600 22015G24KT P6SM SCT120 BKN250
     FM201800 23015G24KT P6SM VCTS SCT030CB BKN050=



000
FTUS43 KILX 192300
TAFPIA
TAF
KPIA 192327Z 2000/2024 18007KT P6SM SCT250
     FM201200 22011KT P6SM SCT120 BKN250
     FM201700 23014G20KT P6SM VCTS SCT030CB BKN050=



000
FTUS43 KILX 192300
TAFCMI
TAF
KCMI 192327Z 2000/2024 15007KT P6SM SCT250
     FM201400 23012KT P6SM SCT120 BKN250
     FM201700 23015G20KT P6SM SCT120 BKN250
     FM202100 23014G22KT P6SM VCTS SCT030CB BKN050=



000
FTUS43 KILX 192300
TAFDEC
TAF
KDEC 192327Z 2000/2024 18008KT P6SM SCT250
     FM201400 22012KT P6SM SCT120 BKN250
     FM201700 23014G22KT P6SM SCT120 BKN250
     FM202000 23014G22KT P6SM VCTS SCT030CB BKN050=



000
FTUS43 KILX 192100 AAB
TAFBMI
TAF AMD
KBMI 192116Z 1921/2018 17013G18KT P6SM SKC
     FM200000 19008KT P6SM SCT250
     FM201300 22013KT P6SM SCT120 BKN250=



000
FTUS43 KILX 192100 AAB
TAFDEC
TAF AMD
KDEC 192115Z 1921/2018 17010G15KT P6SM SKC
     FM200000 18006KT P6SM SCT250
     FM201400 22011KT P6SM SCT120 BKN250=



000
FTUS43 KILX 191800 AAA
TAFDEC
TAF AMD
KDEC 191832Z 1919/2018 15012G17KT P6SM SKC
     FM200000 18006KT P6SM SCT250
     FM201400 22011KT P6SM SCT120 BKN250=



000
FTUS43 KILX 191800 AAA
TAFCMI
TAF AMD
KCMI 191832Z 1919/2018 15011G18KT P6SM SKC
     FM200000 18006KT P6SM SCT250
     FM201400 22012KT P6SM SCT120 BKN250=



000
FTUS43 KILX 191800 AAA
TAFBMI
TAF AMD
KBMI 191831Z 1919/2018 17012G20KT P6SM SKC
     FM200000 19008KT P6SM SCT250
     FM201300 22013KT P6SM SCT120 BKN250=



000
FTUS43 KILX 191800 AAA
TAFSPI
TAF AMD
KSPI 191831Z 1919/2018 15010G17KT P6SM SKC
     FM200000 18006KT P6SM SCT250
     FM201300 22011KT P6SM SCT120 BKN250=



000
FTUS43 KILX 191800 AAA
TAFPIA
TAF AMD
KPIA 191830Z 1919/2018 18010G15KT P6SM SKC
     FM200000 18007KT P6SM SCT250
     FM201200 22011KT P6SM SCT120 BKN250=



000
FTUS43 KILX 191700 RRA
TAFDEC
TAF
KDEC 191742Z 1918/2018 16012G17KT P6SM SKC
     FM200800 18005KT P6SM SCT250
     FM201400 22011KT P6SM SCT120 BKN250=



000
FTUS43 KILX 191700 RRA
TAFPIA
TAF
KPIA 191742Z 1918/2018 16009G14KT P6SM SKC
     FM200600 19008KT P6SM SCT250
     FM201200 22011KT P6SM SCT120 BKN250=



000
FTUS43 KILX 191700 RRA
TAFCMI
TAF
KCMI 191742Z 1918/2018 15011G18KT P6SM SKC
     FM200800 18005KT P6SM SCT250
     FM201400 22012KT P6SM SCT120 BKN250=



000
FTUS43 KILX 191700 RRA
TAFSPI
TAF
KSPI 191742Z 1918/2018 16009G16KT P6SM SKC
     FM200700 18006KT P6SM SCT250
     FM201300 22011KT P6SM SCT120 BKN250=



000
FTUS43 KILX 191700 RRA
TAFBMI
TAF
KBMI 191742Z 1918/2018 17012G18KT P6SM SKC
     FM200700 19008KT P6SM SCT250
     FM201300 22013KT P6SM SCT120 BKN250=



000
FTUS43 KILX 191400 AAA
TAFBMI
TAF AMD
KBMI 191409Z 1914/2012 13010KT P6SM SKC
     FM191500 16012KT P6SM SKC
     FM200600 19008KT P6SM SCT250=



000
FTUS43 KILX 191100
TAFCMI
TAF
KCMI 191120Z 1912/2012 08005KT P6SM SKC
     FM191500 15010KT P6SM SKC
     FM200600 18005KT P6SM SCT250=



000
FTUS43 KILX 191100
TAFBMI
TAF
KBMI 191120Z 1912/2012 09007KT P6SM SKC
     FM191500 16012KT P6SM SKC
     FM200600 19008KT P6SM SCT250=



000
FTUS43 KILX 191100
TAFPIA
TAF
KPIA 191120Z 1912/2012 VRB03KT P6SM SKC
     FM191500 16010KT P6SM SKC
     FM200600 19008KT P6SM SCT250=



000
FTUS43 KILX 191100
TAFSPI
TAF
KSPI 191120Z 1912/2012 08005KT P6SM SKC
     FM191500 16009KT P6SM SKC
     FM200600 18006KT P6SM SCT250=



000
FTUS43 KILX 191100
TAFDEC
TAF
KDEC 191120Z 1912/2012 08005KT P6SM SKC
     FM191500 15009KT P6SM SKC
     FM200600 18005KT P6SM SCT250=



000
FTUS43 KILX 190800 AAA
TAFPIA
TAF AMD
KPIA 190830Z 1908/2006 12003KT P6SM SKC
      TEMPO 1910/1912 4SM BR
     FM191400 16008KT P6SM FEW040
     FM200000 18008KT P6SM BKN250=



000
FTUS43 KILX 190500
TAFSPI
TAF
KSPI 190521Z 1906/2006 08005KT P6SM SKC
     FM191500 15010KT P6SM FEW040
     FM200000 17007KT P6SM BKN250=



000
FTUS43 KILX 190500
TAFBMI
TAF
KBMI 190521Z 1906/2006 09007KT P6SM SKC
     FM191500 16012KT P6SM FEW035
     FM200000 18010KT P6SM BKN250=



000
FTUS43 KILX 190500
TAFDEC
TAF
KDEC 190521Z 1906/2006 08005KT P6SM SKC
     FM191500 15010KT P6SM FEW040
     FM200000 17007KT P6SM BKN250=



000
FTUS43 KILX 190500
TAFPIA
TAF
KPIA 190521Z 1906/2006 09005KT P6SM SKC
     FM190700 12003KT 6SM BR SKC
      TEMPO 1908/1912 4SM BR
     FM191400 16008KT P6SM FEW040
     FM200000 18008KT P6SM BKN250=



000
FTUS43 KILX 190500
TAFCMI
TAF
KCMI 190521Z 1906/2006 08005KT P6SM SKC
     FM191500 14009KT P6SM FEW040
     FM200000 17006KT P6SM BKN250=



    US Dept of Commerce
    National Oceanic and Atmospheric Administration
    National Weather Service
    1325 East West Highway
    Silver Spring, MD 20910
    Page Author: NWS Internet Services Team
Disclaimer
Information Quality
Credits
Glossary
Privacy Policy
Freedom of Information Act (FOIA)
About Us
Career Opportunities